Philadelphia, Pennsylvania
Traffic Map
Current Weather Conditions
Philadelphia, Pennsylvania
Broken Clouds
Broken Clouds
67°
Feels Like: 67°
Wind Chill: 67° Ceiling: 2000
Heat Index: 67° Visibility: 10mi
Dew Point: 57° Wind: 8mph
Humidity: 70% Direction: 70° (ENE)
Pressure: 30.04in Gusts: 0mph
Raw Report DataKPHL 011354Z 07007KT 10SM BKN020 BKN100 19/14 A3004 RMK AO2 SLP173 T01940139
Traffic Incident Summary
Active as of:
Severity:
Category:
InformationThere was an issue retrieving the traffic information for this location. Please try a different location or try again shortly.
Advertisements
Track Severe Weather on mobile